createdAt,value
2023-05-08T00:00:45.000Z,0.0
2023-05-08T00:01:45.000Z,0.0
2023-05-08T00:02:45.000Z,0.0
2023-05-08T00:03:46.000Z,0.0
2023-05-08T00:04:46.000Z,0.0
2023-05-08T00:05:46.000Z,0.0
2023-05-08T00:06:46.000Z,0.0
2023-05-08T00:07:47.000Z,0.0
2023-05-08T00:08:47.000Z,0.0
2023-05-08T00:09:47.000Z,0.0
2023-05-08T00:10:48.000Z,0.0
2023-05-08T00:11:48.000Z,0.0
2023-05-08T00:12:48.000Z,0.0
2023-05-08T00:13:48.000Z,0.0
2023-05-08T00:14:49.000Z,0.0
2023-05-08T00:15:49.000Z,0.0
2023-05-08T00:16:49.000Z,0.0
2023-05-08T00:17:50.000Z,0.0
2023-05-08T00:18:50.000Z,0.0
2023-05-08T00:19:50.000Z,0.0
2023-05-08T00:20:51.000Z,0.0
2023-05-08T00:21:51.000Z,0.0472
2023-05-08T00:22:51.000Z,0.14159999999999998
2023-05-08T00:23:52.000Z,0.0
2023-05-08T00:24:52.000Z,0.0
2023-05-08T00:25:52.000Z,0.0944
2023-05-08T00:26:53.000Z,0.0
2023-05-08T00:27:53.000Z,0.0
2023-05-08T00:28:53.000Z,0.0
2023-05-08T00:29:53.000Z,0.0
2023-05-08T00:30:54.000Z,0.0
2023-05-08T00:31:54.000Z,0.0
2023-05-08T00:32:54.000Z,0.0
2023-05-08T00:33:55.000Z,0.0
2023-05-08T00:34:55.000Z,0.0
2023-05-08T00:35:55.000Z,0.0
2023-05-08T00:36:56.000Z,0.0
2023-05-08T00:37:56.000Z,0.0
2023-05-08T00:38:56.000Z,0.0
2023-05-08T00:39:56.000Z,0.0
2023-05-08T00:40:57.000Z,0.0
2023-05-08T00:41:57.000Z,0.0
2023-05-08T00:42:57.000Z,0.0
2023-05-08T00:43:58.000Z,0.0
2023-05-08T00:44:58.000Z,0.0
2023-05-08T00:45:58.000Z,0.0
2023-05-08T00:46:59.000Z,0.0
2023-05-08T00:47:59.000Z,0.0
2023-05-08T00:48:59.000Z,0.0
2023-05-08T00:50:00.000Z,0.0
2023-05-08T00:51:00.000Z,0.0
2023-05-08T00:52:00.000Z,0.0
2023-05-08T00:53:00.000Z,0.0
2023-05-08T00:54:01.000Z,0.0
2023-05-08T00:55:01.000Z,0.0
2023-05-08T00:56:01.000Z,0.0
2023-05-08T00:57:02.000Z,0.0
2023-05-08T00:58:02.000Z,0.0
2023-05-08T00:59:02.000Z,0.0
2023-05-08T01:00:03.000Z,0.0
2023-05-08T01:01:03.000Z,0.0
2023-05-08T01:02:03.000Z,0.0
2023-05-08T01:03:03.000Z,0.0
2023-05-08T01:04:04.000Z,0.0
2023-05-08T01:05:04.000Z,0.0
2023-05-08T01:06:04.000Z,0.0
2023-05-08T01:07:05.000Z,0.0
2023-05-08T01:08:05.000Z,0.0
2023-05-08T01:09:05.000Z,0.0
2023-05-08T01:10:05.000Z,0.0
2023-05-08T01:11:06.000Z,0.0
2023-05-08T01:12:06.000Z,0.0
2023-05-08T01:13:06.000Z,0.0
2023-05-08T01:14:07.000Z,0.0
2023-05-08T01:15:07.000Z,0.0
2023-05-08T01:16:07.000Z,0.0
2023-05-08T01:17:08.000Z,0.0
2023-05-08T01:18:08.000Z,0.0
2023-05-08T01:19:08.000Z,0.0
2023-05-08T01:20:08.000Z,0.0
2023-05-08T01:21:09.000Z,0.0
2023-05-08T01:22:09.000Z,0.0
2023-05-08T01:23:09.000Z,0.0
2023-05-08T01:24:10.000Z,0.0
2023-05-08T01:25:10.000Z,0.0
2023-05-08T01:26:10.000Z,0.0
2023-05-08T01:27:11.000Z,0.0
2023-05-08T01:28:11.000Z,0.0
2023-05-08T01:29:11.000Z,0.0
2023-05-08T01:30:11.000Z,0.0
2023-05-08T01:31:12.000Z,0.1888
2023-05-08T01:32:12.000Z,0.0944
2023-05-08T01:33:12.000Z,0.0
2023-05-08T01:34:13.000Z,0.1888
2023-05-08T01:35:13.000Z,0.0
2023-05-08T01:36:13.000Z,0.0
2023-05-08T01:37:14.000Z,0.0
2023-05-08T01:38:14.000Z,0.0
2023-05-08T01:39:14.000Z,0.0
2023-05-08T01:40:14.000Z,0.28319999999999995
2023-05-08T01:41:15.000Z,0.14159999999999998
2023-05-08T01:42:15.000Z,0.0
2023-05-08T01:43:15.000Z,0.0
2023-05-08T01:44:16.000Z,0.0472
2023-05-08T01:45:16.000Z,0.0
2023-05-08T01:46:16.000Z,0.0
2023-05-08T01:47:17.000Z,0.0
2023-05-08T01:48:17.000Z,0.0
2023-05-08T01:49:17.000Z,0.0
2023-05-08T01:50:17.000Z,0.0
2023-05-08T01:51:18.000Z,0.0
2023-05-08T01:52:18.000Z,0.0
2023-05-08T01:53:18.000Z,0.0
2023-05-08T01:54:19.000Z,0.0
2023-05-08T01:55:19.000Z,0.0
2023-05-08T01:56:19.000Z,0.0
2023-05-08T01:57:19.000Z,0.0
2023-05-08T01:58:20.000Z,0.0
2023-05-08T01:59:20.000Z,0.0
2023-05-08T02:00:20.000Z,0.0
2023-05-08T02:01:21.000Z,0.0
2023-05-08T02:02:21.000Z,0.0
2023-05-08T02:03:21.000Z,0.0
2023-05-08T02:04:21.000Z,0.0
2023-05-08T02:05:22.000Z,0.0
2023-05-08T02:06:22.000Z,0.0
2023-05-08T02:07:22.000Z,0.0
2023-05-08T02:08:23.000Z,0.0
2023-05-08T02:09:23.000Z,0.0
2023-05-08T02:10:23.000Z,0.0
2023-05-08T02:11:24.000Z,0.0
2023-05-08T02:12:24.000Z,0.0
2023-05-08T02:13:24.000Z,0.0
2023-05-08T02:14:24.000Z,0.0
2023-05-08T02:15:25.000Z,0.0
2023-05-08T02:16:25.000Z,0.0
2023-05-08T02:17:25.000Z,0.0
2023-05-08T02:18:26.000Z,0.0
2023-05-08T02:19:26.000Z,0.0
2023-05-08T02:20:26.000Z,0.0
2023-05-08T02:21:27.000Z,0.0
2023-05-08T02:22:27.000Z,0.0
2023-05-08T02:23:27.000Z,0.0
2023-05-08T02:24:27.000Z,0.0
2023-05-08T02:25:28.000Z,0.0
2023-05-08T02:26:28.000Z,0.0
2023-05-08T02:27:28.000Z,0.0
2023-05-08T02:28:29.000Z,0.0
2023-05-08T02:29:29.000Z,0.0
2023-05-08T02:30:29.000Z,0.0
2023-05-08T02:31:29.000Z,0.0
2023-05-08T02:32:30.000Z,0.0
2023-05-08T02:33:30.000Z,0.0
2023-05-08T02:34:30.000Z,0.0
2023-05-08T02:35:31.000Z,0.0
2023-05-08T02:36:31.000Z,0.0
2023-05-08T02:37:31.000Z,0.0
2023-05-08T02:38:31.000Z,0.0
2023-05-08T02:39:32.000Z,0.0
2023-05-08T02:40:32.000Z,0.0
2023-05-08T02:41:32.000Z,0.0
2023-05-08T02:42:33.000Z,0.0
2023-05-08T02:43:33.000Z,0.0
2023-05-08T02:44:33.000Z,0.0
2023-05-08T02:45:33.000Z,0.0
2023-05-08T02:46:34.000Z,0.0
2023-05-08T02:47:34.000Z,0.0
2023-05-08T02:48:34.000Z,0.0
2023-05-08T02:49:35.000Z,0.0
2023-05-08T02:50:35.000Z,0.0
2023-05-08T02:51:35.000Z,0.0
2023-05-08T02:52:35.000Z,0.0
2023-05-08T02:53:36.000Z,0.0
2023-05-08T02:54:36.000Z,0.0
2023-05-08T02:55:36.000Z,0.0
2023-05-08T02:56:37.000Z,0.0
2023-05-08T02:57:37.000Z,0.0
2023-05-08T02:58:37.000Z,0.0944
2023-05-08T02:59:38.000Z,0.0
2023-05-08T03:00:38.000Z,0.0
2023-05-08T03:01:38.000Z,0.0
2023-05-08T03:02:38.000Z,0.0
2023-05-08T03:03:39.000Z,0.0
2023-05-08T03:04:39.000Z,0.0
2023-05-08T03:05:39.000Z,0.0
2023-05-08T03:06:40.000Z,0.0
2023-05-08T03:07:40.000Z,0.0
2023-05-08T03:08:40.000Z,0.0
2023-05-08T03:09:40.000Z,0.0
2023-05-08T03:10:41.000Z,0.0
2023-05-08T03:11:41.000Z,0.0
2023-05-08T03:12:41.000Z,0.0
2023-05-08T03:13:42.000Z,0.0
2023-05-08T03:14:42.000Z,0.0
2023-05-08T03:15:42.000Z,0.0
2023-05-08T03:16:43.000Z,0.0
2023-05-08T03:17:43.000Z,0.0
2023-05-08T03:18:43.000Z,0.0
2023-05-08T03:19:43.000Z,0.0
2023-05-08T03:20:44.000Z,0.0
2023-05-08T03:21:44.000Z,0.0
2023-05-08T03:22:44.000Z,0.0
2023-05-08T03:23:45.000Z,0.0
2023-05-08T03:24:45.000Z,0.0
2023-05-08T03:25:45.000Z,0.0
2023-05-08T03:26:46.000Z,0.0
2023-05-08T03:27:46.000Z,0.0
2023-05-08T03:28:46.000Z,0.0
2023-05-08T03:29:46.000Z,0.0
2023-05-08T03:30:47.000Z,0.0
2023-05-08T03:31:47.000Z,0.0
2023-05-08T03:32:47.000Z,0.0
2023-05-08T03:33:48.000Z,0.0
2023-05-08T03:34:48.000Z,0.0
2023-05-08T03:35:48.000Z,0.0
2023-05-08T03:36:48.000Z,0.0
2023-05-08T03:37:49.000Z,0.0
2023-05-08T03:38:49.000Z,0.0
2023-05-08T03:39:49.000Z,0.0
2023-05-08T03:40:50.000Z,0.0
2023-05-08T03:41:50.000Z,0.0
2023-05-08T03:42:50.000Z,0.0
2023-05-08T03:43:50.000Z,0.0
2023-05-08T03:44:51.000Z,0.0
2023-05-08T03:45:51.000Z,0.0
2023-05-08T03:46:51.000Z,0.0
2023-05-08T03:47:52.000Z,0.0
2023-05-08T03:48:52.000Z,0.0
2023-05-08T03:49:52.000Z,0.0
2023-05-08T03:50:52.000Z,0.0
2023-05-08T03:51:53.000Z,0.0
2023-05-08T03:52:53.000Z,0.0
2023-05-08T03:53:53.000Z,0.0
2023-05-08T03:54:54.000Z,0.0
2023-05-08T03:55:54.000Z,0.1888
2023-05-08T03:56:54.000Z,0.0944
2023-05-08T03:57:54.000Z,0.0
2023-05-08T03:58:55.000Z,0.0
2023-05-08T03:59:55.000Z,0.0
2023-05-08T04:00:55.000Z,0.1888
2023-05-08T04:01:56.000Z,0.0472
2023-05-08T04:02:56.000Z,0.0
2023-05-08T04:03:56.000Z,0.0
2023-05-08T04:04:56.000Z,0.0
2023-05-08T04:05:57.000Z,0.0
2023-05-08T04:06:57.000Z,0.0
2023-05-08T04:07:57.000Z,0.0
2023-05-08T04:08:58.000Z,0.0944
2023-05-08T04:09:58.000Z,0.0
2023-05-08T04:10:58.000Z,0.0
2023-05-08T04:11:59.000Z,0.0
2023-05-08T04:12:59.000Z,0.0
2023-05-08T04:13:59.000Z,0.0
2023-05-08T04:15:00.000Z,0.0
2023-05-08T04:16:00.000Z,0.0
2023-05-08T04:17:00.000Z,0.0
2023-05-08T04:18:00.000Z,0.0
2023-05-08T04:19:01.000Z,0.0
2023-05-08T04:20:01.000Z,0.0
2023-05-08T04:21:01.000Z,0.0
2023-05-08T04:22:02.000Z,0.0
2023-05-08T04:23:02.000Z,0.0
2023-05-08T04:24:02.000Z,0.0
2023-05-08T04:25:03.000Z,0.0
2023-05-08T04:26:03.000Z,0.0
2023-05-08T04:27:03.000Z,0.0
2023-05-08T04:28:04.000Z,0.0
2023-05-08T04:29:04.000Z,0.0
2023-05-08T04:30:04.000Z,0.0
2023-05-08T04:31:05.000Z,0.0
2023-05-08T04:32:05.000Z,0.0
2023-05-08T04:33:05.000Z,0.0944
2023-05-08T04:34:06.000Z,0.0
2023-05-08T04:35:06.000Z,0.0
2023-05-08T04:36:07.000Z,0.0944
2023-05-08T04:37:07.000Z,0.0
2023-05-08T04:38:07.000Z,0.14159999999999998
2023-05-08T04:39:08.000Z,0.5191999999999999
2023-05-08T04:40:08.000Z,0.0472
2023-05-08T04:41:08.000Z,0.14159999999999998
2023-05-08T04:42:09.000Z,0.1888
2023-05-08T04:43:09.000Z,0.0
2023-05-08T04:44:09.000Z,0.0
2023-05-08T04:45:09.000Z,0.0
2023-05-08T04:46:10.000Z,0.0944
2023-05-08T04:47:10.000Z,0.28319999999999995
2023-05-08T04:48:10.000Z,0.0
2023-05-08T04:49:11.000Z,0.0
2023-05-08T04:50:11.000Z,0.0
2023-05-08T04:51:11.000Z,0.33039999999999997
2023-05-08T04:52:12.000Z,0.0
2023-05-08T04:53:12.000Z,0.0
2023-05-08T04:54:12.000Z,0.0
2023-05-08T04:55:12.000Z,0.14159999999999998
2023-05-08T04:56:13.000Z,0.0472
2023-05-08T04:57:13.000Z,0.0
2023-05-08T04:58:13.000Z,0.0
2023-05-08T04:59:13.000Z,0.0
2023-05-08T05:00:14.000Z,0.0
2023-05-08T05:01:14.000Z,0.14159999999999998
2023-05-08T05:02:14.000Z,0.14159999999999998
2023-05-08T05:03:15.000Z,0.0472
2023-05-08T05:04:15.000Z,0.0
2023-05-08T05:05:15.000Z,0.0472
2023-05-08T05:06:15.000Z,0.14159999999999998
2023-05-08T05:07:16.000Z,0.0
2023-05-08T05:08:16.000Z,0.3776
2023-05-08T05:09:16.000Z,0.0944
2023-05-08T05:10:17.000Z,0.0
2023-05-08T05:11:17.000Z,0.1888
2023-05-08T05:12:17.000Z,0.1888
2023-05-08T05:13:17.000Z,0.0944
2023-05-08T05:14:18.000Z,0.1888
2023-05-08T05:15:18.000Z,0.0
2023-05-08T05:16:18.000Z,0.0944
2023-05-08T05:17:19.000Z,0.1888
2023-05-08T05:18:19.000Z,0.0
2023-05-08T05:19:19.000Z,0.0
2023-05-08T05:20:20.000Z,0.28319999999999995
2023-05-08T05:21:20.000Z,0.0
2023-05-08T05:22:20.000Z,0.0944
2023-05-08T05:23:20.000Z,0.3776
2023-05-08T05:24:21.000Z,0.0
2023-05-08T05:25:21.000Z,0.23599999999999996
2023-05-08T05:26:21.000Z,0.4719999999999999
2023-05-08T05:27:22.000Z,0.23599999999999996
2023-05-08T05:28:22.000Z,0.0
2023-05-08T05:29:22.000Z,0.0
2023-05-08T05:30:23.000Z,0.14159999999999998
2023-05-08T05:31:23.000Z,0.23599999999999996
2023-05-08T05:32:23.000Z,0.14159999999999998
2023-05-08T05:33:23.000Z,0.23599999999999996
2023-05-08T05:34:24.000Z,0.0
2023-05-08T05:35:24.000Z,0.0944
2023-05-08T05:36:24.000Z,0.0
2023-05-08T05:37:25.000Z,0.0
2023-05-08T05:38:25.000Z,0.1888
2023-05-08T05:39:25.000Z,0.0944
2023-05-08T05:40:26.000Z,0.8967999999999998
2023-05-08T05:41:26.000Z,0.6136
2023-05-08T05:42:26.000Z,0.8495999999999999
2023-05-08T05:43:26.000Z,0.28319999999999995
2023-05-08T05:44:27.000Z,0.0
2023-05-08T05:45:27.000Z,0.4719999999999999
2023-05-08T05:46:27.000Z,0.4719999999999999
2023-05-08T05:47:28.000Z,0.0
2023-05-08T05:48:28.000Z,0.0
2023-05-08T05:49:28.000Z,0.0
2023-05-08T05:50:29.000Z,0.5663999999999999
2023-05-08T05:51:29.000Z,0.6136
2023-05-08T05:52:29.000Z,0.8967999999999998
2023-05-08T05:53:29.000Z,0.4719999999999999
2023-05-08T05:54:30.000Z,0.23599999999999996
2023-05-08T05:55:30.000Z,0.4719999999999999
2023-05-08T05:56:30.000Z,0.4719999999999999
2023-05-08T05:57:31.000Z,0.0
2023-05-08T05:58:31.000Z,1.416
2023-05-08T05:59:31.000Z,0.23599999999999996
2023-05-08T06:00:31.000Z,0.0
2023-05-08T06:01:32.000Z,0.14159999999999998
2023-05-08T06:02:32.000Z,0.33039999999999997
2023-05-08T06:03:32.000Z,0.1888
2023-05-08T06:04:33.000Z,0.28319999999999995
2023-05-08T06:05:33.000Z,0.5191999999999999
2023-05-08T06:06:33.000Z,0.14159999999999998
2023-05-08T06:07:34.000Z,0.28319999999999995
2023-05-08T06:08:34.000Z,0.23599999999999996
2023-05-08T06:09:34.000Z,0.0472
2023-05-08T06:10:34.000Z,0.7552
2023-05-08T06:11:35.000Z,1.0383999999999998
2023-05-08T06:12:35.000Z,0.6136
2023-05-08T06:13:35.000Z,0.8495999999999999
2023-05-08T06:14:36.000Z,0.7552
2023-05-08T06:15:36.000Z,0.42479999999999996
2023-05-08T06:16:36.000Z,2.8792
2023-05-08T06:17:36.000Z,0.6607999999999999
2023-05-08T06:18:37.000Z,0.9911999999999999
2023-05-08T06:19:37.000Z,0.5663999999999999
2023-05-08T06:20:37.000Z,0.4719999999999999
2023-05-08T06:21:38.000Z,1.2272
2023-05-08T06:22:38.000Z,0.0
2023-05-08T06:23:38.000Z,0.0
2023-05-08T06:24:38.000Z,0.5191999999999999
2023-05-08T06:25:39.000Z,0.9439999999999998
2023-05-08T06:26:39.000Z,1.7464
2023-05-08T06:27:39.000Z,1.5576
2023-05-08T06:28:40.000Z,0.5191999999999999
2023-05-08T06:29:40.000Z,1.4631999999999998
2023-05-08T06:30:40.000Z,3.0679999999999996
2023-05-08T06:31:41.000Z,0.0
2023-05-08T06:32:41.000Z,3.7759999999999994
2023-05-08T06:33:41.000Z,1.6991999999999998
2023-05-08T06:34:41.000Z,2.5015999999999994
2023-05-08T06:35:42.000Z,1.8879999999999997
2023-05-08T06:36:42.000Z,1.9823999999999997
2023-05-08T06:37:42.000Z,0.33039999999999997
2023-05-08T06:38:43.000Z,1.5576
2023-05-08T06:39:43.000Z,4.3424
2023-05-08T06:40:43.000Z,1.2272
2023-05-08T06:41:43.000Z,0.28319999999999995
2023-05-08T06:42:44.000Z,0.0
2023-05-08T06:43:44.000Z,0.8967999999999998
2023-05-08T06:44:44.000Z,0.5663999999999999
2023-05-08T06:45:45.000Z,0.0944
2023-05-08T06:46:45.000Z,0.8495999999999999
2023-05-08T06:47:45.000Z,0.708
2023-05-08T06:48:46.000Z,3.3511999999999995
2023-05-08T06:49:46.000Z,2.6431999999999998
2023-05-08T06:50:46.000Z,0.5663999999999999
2023-05-08T06:51:47.000Z,1.0383999999999998
2023-05-08T06:52:47.000Z,1.5104
2023-05-08T06:53:48.000Z,0.708
2023-05-08T06:54:48.000Z,0.5663999999999999
2023-05-08T06:55:49.000Z,0.0
2023-05-08T06:56:49.000Z,0.0
2023-05-08T06:57:49.000Z,0.0
2023-05-08T06:58:50.000Z,0.0472
2023-05-08T06:59:50.000Z,0.23599999999999996
2023-05-08T07:00:50.000Z,0.8495999999999999
2023-05-08T07:01:50.000Z,2.2655999999999996
2023-05-08T07:02:51.000Z,1.7935999999999996
2023-05-08T07:03:51.000Z,0.42479999999999996
2023-05-08T07:04:51.000Z,0.33039999999999997
2023-05-08T07:05:52.000Z,0.3776
2023-05-08T07:06:52.000Z,0.7552
2023-05-08T07:07:52.000Z,0.9911999999999999
2023-05-08T07:08:52.000Z,0.8967999999999998
2023-05-08T07:09:53.000Z,0.708
2023-05-08T07:10:53.000Z,0.6136
2023-05-08T07:11:53.000Z,0.14159999999999998
2023-05-08T07:12:54.000Z,0.0944
2023-05-08T07:13:54.000Z,0.33039999999999997
2023-05-08T07:14:54.000Z,0.0
2023-05-08T07:15:55.000Z,0.9439999999999998
2023-05-08T07:16:55.000Z,1.3687999999999998
2023-05-08T07:17:55.000Z,0.8023999999999999
2023-05-08T07:18:55.000Z,0.23599999999999996
2023-05-08T07:19:56.000Z,0.0
2023-05-08T07:20:56.000Z,0.0
2023-05-08T07:21:56.000Z,3.2567999999999997
2023-05-08T07:22:57.000Z,3.0208
2023-05-08T07:23:57.000Z,2.5015999999999994
2023-05-08T07:24:57.000Z,2.5488
2023-05-08T07:25:58.000Z,1.1327999999999998
2023-05-08T07:26:58.000Z,1.3687999999999998
2023-05-08T07:27:58.000Z,0.6136
2023-05-08T07:28:58.000Z,0.4719999999999999
2023-05-08T07:29:59.000Z,0.0944
2023-05-08T07:30:59.000Z,0.0
2023-05-08T07:31:59.000Z,0.9439999999999998
2023-05-08T07:33:00.000Z,1.0856
2023-05-08T07:34:00.000Z,0.33039999999999997
2023-05-08T07:35:00.000Z,0.1888
2023-05-08T07:36:01.000Z,1.416
2023-05-08T07:37:01.000Z,2.0296
2023-05-08T07:38:01.000Z,3.7759999999999994
2023-05-08T07:39:02.000Z,1.9823999999999997
2023-05-08T07:40:02.000Z,0.8023999999999999
2023-05-08T07:41:02.000Z,0.42479999999999996
2023-05-08T07:42:03.000Z,0.0944
2023-05-08T07:43:03.000Z,1.3215999999999999
2023-05-08T07:44:03.000Z,3.0208
2023-05-08T07:45:04.000Z,0.3776
2023-05-08T07:46:04.000Z,1.6047999999999998
2023-05-08T07:47:04.000Z,0.8967999999999998
2023-05-08T07:48:04.000Z,0.28319999999999995
2023-05-08T07:49:05.000Z,0.0
2023-05-08T07:50:05.000Z,0.6607999999999999
2023-05-08T07:51:05.000Z,1.0383999999999998
2023-05-08T07:52:06.000Z,0.0944
2023-05-08T07:53:06.000Z,0.3776
2023-05-08T07:54:06.000Z,0.4719999999999999
2023-05-08T07:55:06.000Z,0.6607999999999999
2023-05-08T07:56:07.000Z,2.9263999999999997
2023-05-08T07:57:07.000Z,1.8408
2023-05-08T07:58:07.000Z,1.8879999999999997
2023-05-08T07:59:08.000Z,1.3215999999999999
2023-05-08T08:00:08.000Z,0.7552
2023-05-08T08:01:08.000Z,0.42479999999999996
2023-05-08T08:02:09.000Z,2.5488
2023-05-08T08:03:09.000Z,3.0208
2023-05-08T08:04:09.000Z,0.9911999999999999
2023-05-08T08:05:09.000Z,0.8023999999999999
2023-05-08T08:06:10.000Z,1.3687999999999998
2023-05-08T08:07:10.000Z,1.416
2023-05-08T08:08:10.000Z,1.2744
2023-05-08T08:09:11.000Z,0.0
2023-05-08T08:10:11.000Z,0.0944
2023-05-08T08:11:11.000Z,0.5663999999999999
2023-05-08T08:12:11.000Z,1.5104
2023-05-08T08:13:12.000Z,0.14159999999999998
2023-05-08T08:14:12.000Z,0.0
2023-05-08T08:15:12.000Z,0.3776
2023-05-08T08:16:13.000Z,1.6047999999999998
2023-05-08T08:17:13.000Z,1.0383999999999998
2023-05-08T08:18:13.000Z,0.23599999999999996
2023-05-08T08:19:13.000Z,1.0383999999999998
2023-05-08T08:20:14.000Z,0.708
2023-05-08T08:21:14.000Z,2.36
2023-05-08T08:22:14.000Z,2.6431999999999998
2023-05-08T08:23:15.000Z,1.416
2023-05-08T08:24:15.000Z,0.5663999999999999
2023-05-08T08:25:15.000Z,0.5191999999999999
2023-05-08T08:26:15.000Z,0.9439999999999998
2023-05-08T08:27:16.000Z,1.6991999999999998
2023-05-08T08:28:16.000Z,1.416
2023-05-08T08:29:16.000Z,1.5104
2023-05-08T08:30:17.000Z,0.0944
2023-05-08T08:31:17.000Z,1.7935999999999996
2023-05-08T08:32:17.000Z,0.6607999999999999
2023-05-08T08:33:17.000Z,1.3215999999999999
2023-05-08T08:34:18.000Z,3.7287999999999992
2023-05-08T08:35:18.000Z,1.6047999999999998
2023-05-08T08:36:18.000Z,1.6520000000000001
2023-05-08T08:37:19.000Z,2.0767999999999995
2023-05-08T08:38:19.000Z,2.5959999999999996
2023-05-08T08:39:19.000Z,1.9823999999999997
2023-05-08T08:40:20.000Z,1.9823999999999997
2023-05-08T08:41:20.000Z,1.3687999999999998
2023-05-08T08:42:20.000Z,2.1712
2023-05-08T08:43:20.000Z,0.5663999999999999
2023-05-08T08:44:21.000Z,0.8967999999999998
2023-05-08T08:45:21.000Z,0.0
2023-05-08T08:46:21.000Z,0.0
2023-05-08T08:47:22.000Z,1.2272
2023-05-08T08:48:22.000Z,0.5191999999999999
2023-05-08T08:49:22.000Z,0.7552
2023-05-08T08:50:23.000Z,0.0
2023-05-08T08:51:23.000Z,0.0
2023-05-08T08:52:23.000Z,0.14159999999999998
2023-05-08T08:53:23.000Z,1.6991999999999998
2023-05-08T08:54:24.000Z,1.416
2023-05-08T08:55:24.000Z,1.5104
2023-05-08T08:56:24.000Z,1.18
2023-05-08T08:57:25.000Z,2.7847999999999997
2023-05-08T08:58:25.000Z,0.8495999999999999
2023-05-08T08:59:25.000Z,0.1888
2023-05-08T09:00:25.000Z,2.832
2023-05-08T09:01:26.000Z,1.7464
2023-05-08T09:02:26.000Z,1.4631999999999998
2023-05-08T09:03:26.000Z,1.416
2023-05-08T09:04:27.000Z,0.8495999999999999
2023-05-08T09:05:27.000Z,4.1064
2023-05-08T09:06:27.000Z,5.475199999999999
2023-05-08T09:07:27.000Z,4.531199999999999
2023-05-08T09:08:28.000Z,1.2272
2023-05-08T09:09:28.000Z,2.2184
2023-05-08T09:10:28.000Z,1.2744
2023-05-08T09:11:29.000Z,4.2008
2023-05-08T09:12:29.000Z,3.8232
2023-05-08T09:13:29.000Z,1.9823999999999997
2023-05-08T09:14:29.000Z,2.1712
2023-05-08T09:15:30.000Z,4.1064
2023-05-08T09:16:30.000Z,5.003199999999999
2023-05-08T09:17:30.000Z,0.708
2023-05-08T09:18:31.000Z,1.6047999999999998
2023-05-08T09:19:31.000Z,2.2655999999999996
2023-05-08T09:20:31.000Z,1.7935999999999996
2023-05-08T09:21:32.000Z,1.3215999999999999
2023-05-08T09:22:32.000Z,2.5959999999999996
2023-05-08T09:23:32.000Z,2.3127999999999997
2023-05-08T09:24:33.000Z,2.4544
2023-05-08T09:25:33.000Z,1.9823999999999997
2023-05-08T09:26:33.000Z,3.8703999999999996
2023-05-08T09:27:34.000Z,3.6344
2023-05-08T09:28:34.000Z,5.333599999999999
2023-05-08T09:29:34.000Z,3.1624
2023-05-08T09:30:34.000Z,0.8495999999999999
2023-05-08T09:31:35.000Z,2.7847999999999997
2023-05-08T09:32:35.000Z,3.6816
2023-05-08T09:33:35.000Z,2.6431999999999998
2023-05-08T09:34:36.000Z,4.9088
2023-05-08T09:35:36.000Z,1.6520000000000001
2023-05-08T09:36:36.000Z,2.7847999999999997
2023-05-08T09:37:36.000Z,3.3040000000000003
2023-05-08T09:38:37.000Z,1.1327999999999998
2023-05-08T09:39:37.000Z,2.9263999999999997
2023-05-08T09:40:37.000Z,2.3127999999999997
2023-05-08T09:41:38.000Z,0.6136
2023-05-08T09:42:38.000Z,3.6816
2023-05-08T09:43:38.000Z,4.153599999999999
2023-05-08T09:44:38.000Z,2.8792
2023-05-08T09:45:39.000Z,1.9823999999999997
2023-05-08T09:46:39.000Z,1.0856
2023-05-08T09:47:39.000Z,2.2184
2023-05-08T09:48:40.000Z,5.8999999999999995
2023-05-08T09:49:40.000Z,2.0767999999999995
2023-05-08T09:50:40.000Z,2.832
2023-05-08T09:51:41.000Z,0.8967999999999998
2023-05-08T09:52:41.000Z,2.0296
2023-05-08T09:53:41.000Z,1.8408
2023-05-08T09:54:41.000Z,4.4368
2023-05-08T09:55:42.000Z,3.1624
2023-05-08T09:56:42.000Z,2.0767999999999995
2023-05-08T09:57:42.000Z,2.0767999999999995
2023-05-08T09:58:43.000Z,1.7464
2023-05-08T09:59:43.000Z,1.5104
2023-05-08T10:00:43.000Z,0.9439999999999998
2023-05-08T10:01:43.000Z,1.3687999999999998
2023-05-08T10:02:44.000Z,3.3983999999999996
2023-05-08T10:03:44.000Z,0.3776
2023-05-08T10:04:44.000Z,0.7552
2023-05-08T10:05:45.000Z,1.0383999999999998
2023-05-08T10:06:45.000Z,1.6991999999999998
2023-05-08T10:07:45.000Z,5.191999999999999
2023-05-08T10:08:46.000Z,0.708
2023-05-08T10:09:46.000Z,0.42479999999999996
2023-05-08T10:10:46.000Z,1.5576
2023-05-08T10:11:46.000Z,1.7935999999999996
2023-05-08T10:12:47.000Z,1.18
2023-05-08T10:13:47.000Z,1.0383999999999998
2023-05-08T10:14:47.000Z,1.5576
2023-05-08T10:15:48.000Z,2.36
2023-05-08T10:16:48.000Z,0.5191999999999999
2023-05-08T10:17:48.000Z,0.708
2023-05-08T10:18:49.000Z,1.5104
2023-05-08T10:19:49.000Z,1.6520000000000001
2023-05-08T10:20:49.000Z,1.416
2023-05-08T10:21:49.000Z,5.522399999999999
2023-05-08T10:22:50.000Z,1.9823999999999997
2023-05-08T10:23:50.000Z,0.9911999999999999
2023-05-08T10:24:50.000Z,2.7847999999999997
2023-05-08T10:25:51.000Z,2.6431999999999998
2023-05-08T10:26:51.000Z,0.6607999999999999
2023-05-08T10:27:51.000Z,2.832
2023-05-08T10:28:51.000Z,1.18
2023-05-08T10:29:52.000Z,1.0383999999999998
2023-05-08T10:30:52.000Z,1.5576
2023-05-08T10:31:52.000Z,1.1327999999999998
2023-05-08T10:32:53.000Z,2.36
2023-05-08T10:33:53.000Z,1.4631999999999998
2023-05-08T10:34:53.000Z,1.0856
2023-05-08T10:35:54.000Z,1.7464
2023-05-08T10:36:54.000Z,0.708
2023-05-08T10:37:54.000Z,1.7935999999999996
2023-05-08T10:38:55.000Z,2.1712
2023-05-08T10:39:55.000Z,1.416
2023-05-08T10:40:55.000Z,1.0856
2023-05-08T10:41:56.000Z,1.7464
2023-05-08T10:42:56.000Z,1.8879999999999997
2023-05-08T10:43:56.000Z,1.6047999999999998
2023-05-08T10:44:57.000Z,1.3215999999999999
2023-05-08T10:45:57.000Z,2.5015999999999994
2023-05-08T10:46:57.000Z,3.3040000000000003
2023-05-08T10:47:57.000Z,2.4544
2023-05-08T10:48:58.000Z,2.9263999999999997
2023-05-08T10:49:58.000Z,0.9439999999999998
2023-05-08T10:50:58.000Z,1.1327999999999998
2023-05-08T10:51:59.000Z,2.5488
2023-05-08T10:52:59.000Z,1.9351999999999998
2023-05-08T10:53:59.000Z,3.6816
2023-05-08T10:55:00.000Z,3.2567999999999997
2023-05-08T10:56:00.000Z,2.5488
2023-05-08T10:57:00.000Z,2.7847999999999997
2023-05-08T10:58:01.000Z,1.3687999999999998
2023-05-08T10:59:01.000Z,3.3983999999999996
2023-05-08T11:00:01.000Z,0.5663999999999999
2023-05-08T11:01:02.000Z,0.6607999999999999
2023-05-08T11:02:02.000Z,1.5104
2023-05-08T11:03:02.000Z,1.2272
2023-05-08T11:04:03.000Z,1.6047999999999998
2023-05-08T11:05:03.000Z,0.0
2023-05-08T11:06:03.000Z,3.8232
2023-05-08T11:07:04.000Z,0.9439999999999998
2023-05-08T11:08:04.000Z,5.664
2023-05-08T11:09:04.000Z,1.7935999999999996
2023-05-08T11:10:04.000Z,0.8495999999999999
2023-05-08T11:11:05.000Z,1.3687999999999998
2023-05-08T11:12:05.000Z,1.8408
2023-05-08T11:13:05.000Z,0.3776
2023-05-08T11:14:06.000Z,3.1624
2023-05-08T11:15:06.000Z,3.3983999999999996
2023-05-08T11:16:06.000Z,3.2095999999999996
2023-05-08T11:17:07.000Z,2.36
2023-05-08T11:18:07.000Z,4.6728
2023-05-08T11:19:07.000Z,2.7847999999999997
2023-05-08T11:20:08.000Z,1.5576
2023-05-08T11:21:08.000Z,0.8495999999999999
2023-05-08T11:22:08.000Z,0.28319999999999995
2023-05-08T11:23:08.000Z,2.9263999999999997
2023-05-08T11:24:09.000Z,1.1327999999999998
2023-05-08T11:25:09.000Z,1.8879999999999997
2023-05-08T11:26:09.000Z,0.8495999999999999
2023-05-08T11:27:10.000Z,0.8495999999999999
2023-05-08T11:28:10.000Z,1.7935999999999996
2023-05-08T11:29:10.000Z,3.8232
2023-05-08T11:30:11.000Z,3.54
2023-05-08T11:31:11.000Z,1.2744
2023-05-08T11:32:11.000Z,1.7935999999999996
2023-05-08T11:33:11.000Z,0.8967999999999998
2023-05-08T11:34:12.000Z,1.416
2023-05-08T11:35:12.000Z,1.416
2023-05-08T11:36:12.000Z,2.9263999999999997
2023-05-08T11:37:13.000Z,3.3511999999999995